createdAt,value
2023-05-25T00:00:10.344Z,5.85
2023-05-25T00:02:39.815Z,5.03
2023-05-25T00:05:11.007Z,4.95
2023-05-25T00:07:39.465Z,5.63
2023-05-25T00:10:09.050Z,5.55
2023-05-25T00:12:37.838Z,4.85
2023-05-25T00:15:08.667Z,5.70
2023-05-25T00:17:37.461Z,5.07
2023-05-25T00:20:08.238Z,5.93
2023-05-25T00:22:36.766Z,6.07
2023-05-25T00:25:05.430Z,6.38
2023-05-25T00:27:33.918Z,5.13
2023-05-25T00:30:01.906Z,5.57
2023-05-25T00:32:31.485Z,5.38
2023-05-25T00:34:59.620Z,5.28
2023-05-25T00:37:27.846Z,5.25
2023-05-25T00:39:56.084Z,6.03
2023-05-25T00:42:25.614Z,5.70
2023-05-25T00:44:53.630Z,5.55
2023-05-25T00:47:21.707Z,5.47
2023-05-25T00:49:52.572Z,5.20
2023-05-25T00:52:20.673Z,5.78
2023-05-25T00:54:52.695Z,6.10
2023-05-25T00:57:24.416Z,4.97
2023-05-25T00:59:55.053Z,5.47
2023-05-25T01:02:24.339Z,5.68
2023-05-25T01:04:55.816Z,5.00
2023-05-25T01:07:25.768Z,5.18
2023-05-25T01:09:59.656Z,5.80
2023-05-25T01:12:29.836Z,5.45
2023-05-25T01:14:59.409Z,5.78
2023-05-25T01:17:28.923Z,5.38
2023-05-25T01:20:09.631Z,5.88
2023-05-25T01:22:46.375Z,5.93
2023-05-25T01:25:21.720Z,6.07
2023-05-25T01:27:53.364Z,5.43
2023-05-25T01:30:26.362Z,4.70
2023-05-25T01:32:55.062Z,5.78
2023-05-25T01:35:24.422Z,6.05
2023-05-25T01:37:54.181Z,6.50
2023-05-25T01:40:22.273Z,6.28
2023-05-25T01:42:50.401Z,5.60
2023-05-25T01:45:18.474Z,6.00
2023-05-25T01:47:54.724Z,5.72
2023-05-25T01:50:27.872Z,6.35
2023-05-25T01:53:03.046Z,6.47
2023-05-25T01:55:36.758Z,6.10
2023-05-25T01:58:06.709Z,6.25
2023-05-25T02:00:36.593Z,6.00
2023-05-25T02:03:05.599Z,6.30
2023-05-25T02:05:33.806Z,6.18
2023-05-25T02:08:03.242Z,5.28
2023-05-25T02:10:31.478Z,6.32
2023-05-25T02:13:00.158Z,6.38
2023-05-25T02:15:32.830Z,6.70
2023-05-25T02:18:01.245Z,6.30
2023-05-25T02:20:29.414Z,6.32
2023-05-25T02:22:57.797Z,6.32
2023-05-25T02:25:27.233Z,5.80
2023-05-25T02:27:56.233Z,6.38
2023-05-25T02:30:24.618Z,6.05
2023-05-25T02:32:54.153Z,5.78
2023-05-25T02:35:22.265Z,5.50
2023-05-25T02:37:51.261Z,6.53
2023-05-25T02:40:19.465Z,6.25
2023-05-25T02:42:49.007Z,6.83
2023-05-25T02:45:17.128Z,5.47
2023-05-25T02:47:45.374Z,5.78
2023-05-25T02:50:13.789Z,5.88
2023-05-25T02:52:42.567Z,6.00
2023-05-25T02:55:13.213Z,6.03
2023-05-25T02:57:42.048Z,6.05
2023-05-25T03:00:13.620Z,6.63
2023-05-25T03:02:41.907Z,6.47
2023-05-25T03:05:10.132Z,6.30
2023-05-25T03:07:38.256Z,6.70
2023-05-25T03:10:07.068Z,7.18
2023-05-25T03:12:35.381Z,6.67
2023-05-25T03:15:03.890Z,6.82
2023-05-25T03:17:33.612Z,7.40
2023-05-25T03:20:01.815Z,6.50
2023-05-25T03:22:30.196Z,7.30
2023-05-25T03:24:59.712Z,8.20
2023-05-25T03:27:27.773Z,7.37
2023-05-25T03:29:55.928Z,7.70
2023-05-25T03:32:24.447Z,8.50
2023-05-25T03:34:54.195Z,7.60
2023-05-25T03:37:22.308Z,7.60
2023-05-25T03:39:50.395Z,8.07
2023-05-25T03:42:18.681Z,7.88
2023-05-25T03:44:46.828Z,8.02
2023-05-25T03:47:15.278Z,7.70
2023-05-25T03:49:43.252Z,7.70
2023-05-25T03:52:12.755Z,9.48
2023-05-25T03:54:40.751Z,8.40
2023-05-25T03:57:08.748Z,7.70
2023-05-25T03:59:37.386Z,8.02
2023-05-25T04:02:06.026Z,8.27
2023-05-25T04:04:34.807Z,6.97
2023-05-25T04:07:02.916Z,8.23
2023-05-25T04:09:32.411Z,7.72
2023-05-25T04:12:02.469Z,7.72
2023-05-25T04:14:30.718Z,9.18
2023-05-25T04:16:58.780Z,8.60
2023-05-25T04:19:26.850Z,7.65
2023-05-25T04:21:55.350Z,8.73
2023-05-25T04:24:23.911Z,7.80
2023-05-25T04:26:53.430Z,7.38
2023-05-25T04:29:21.786Z,6.95
2023-05-25T04:31:51.451Z,8.02
2023-05-25T04:34:21.726Z,8.37
2023-05-25T04:36:49.915Z,8.60
2023-05-25T04:39:18.650Z,8.05
2023-05-25T04:41:48.472Z,7.15
2023-05-25T04:44:19.967Z,8.82
2023-05-25T04:46:48.021Z,8.63
2023-05-25T04:49:16.784Z,9.07
2023-05-25T04:51:45.122Z,8.38
2023-05-25T04:54:13.144Z,10.10
2023-05-25T04:56:41.183Z,8.77
2023-05-25T04:59:09.284Z,9.32
2023-05-25T05:01:41.204Z,9.30
2023-05-25T05:04:09.736Z,8.48
2023-05-25T05:06:37.949Z,7.72
2023-05-25T05:09:06.069Z,8.02
2023-05-25T05:11:34.180Z,8.05
2023-05-25T05:14:02.138Z,7.50
2023-05-25T05:16:34.167Z,7.82
2023-05-25T05:19:03.933Z,6.97
2023-05-25T05:21:32.448Z,7.00
2023-05-25T05:24:00.558Z,8.77
2023-05-25T05:26:30.642Z,7.40
2023-05-25T05:28:59.575Z,7.75
2023-05-25T05:31:27.708Z,7.97
2023-05-25T05:33:55.806Z,7.65
2023-05-25T05:36:25.242Z,8.90
2023-05-25T05:38:53.276Z,7.97
2023-05-25T05:41:21.714Z,7.45
2023-05-25T05:43:49.962Z,8.18
2023-05-25T05:46:18.072Z,7.65
2023-05-25T05:48:46.173Z,7.15
2023-05-25T05:51:14.450Z,8.90
2023-05-25T05:53:43.965Z,7.97
2023-05-25T05:56:18.761Z,8.43
2023-05-25T05:58:49.577Z,6.93
2023-05-25T06:01:18.063Z,7.00
2023-05-25T06:03:48.121Z,7.45
2023-05-25T06:06:16.766Z,7.00
2023-05-25T06:08:46.716Z,6.97
2023-05-25T06:11:15.390Z,6.57
2023-05-25T06:13:45.398Z,6.60
2023-05-25T06:16:14.711Z,7.18
2023-05-25T06:18:43.392Z,8.05
2023-05-25T06:21:13.138Z,7.28
2023-05-25T06:23:41.683Z,7.35
2023-05-25T06:26:11.341Z,6.82
2023-05-25T06:28:39.429Z,6.60
2023-05-25T06:31:07.730Z,5.10
2023-05-25T06:33:36.188Z,5.85
2023-05-25T06:36:04.990Z,5.82
2023-05-25T06:38:34.032Z,5.82
2023-05-25T06:41:09.841Z,5.70
2023-05-25T06:43:39.806Z,5.13
2023-05-25T06:46:18.648Z,5.22
2023-05-25T06:48:55.833Z,4.82
2023-05-25T06:51:31.674Z,5.95
2023-05-25T06:54:00.838Z,5.78
2023-05-25T06:56:32.985Z,4.97
2023-05-25T06:59:03.076Z,5.25
2023-05-25T07:01:36.133Z,4.88
2023-05-25T07:04:04.775Z,6.13
2023-05-25T07:06:40.193Z,4.90
2023-05-25T07:09:11.266Z,5.05
2023-05-25T07:11:42.063Z,5.35
2023-05-25T07:14:12.195Z,4.63
2023-05-25T07:16:44.842Z,4.13
2023-05-25T07:19:15.840Z,4.45
2023-05-25T07:21:49.211Z,5.05
2023-05-25T07:24:18.363Z,4.18
2023-05-25T07:26:49.954Z,4.13
2023-05-25T07:29:25.938Z,4.63
2023-05-25T07:31:56.248Z,4.50
2023-05-25T07:34:29.709Z,4.80
2023-05-25T07:36:59.876Z,4.32
2023-05-25T07:39:30.249Z,4.15
2023-05-25T07:41:59.354Z,5.15
2023-05-25T07:44:35.973Z,5.50
2023-05-25T07:47:07.356Z,4.93
2023-05-25T07:49:39.685Z,5.03
2023-05-25T07:52:09.564Z,4.80
2023-05-25T07:54:40.598Z,5.38
2023-05-25T07:57:08.845Z,6.18
2023-05-25T07:59:38.435Z,6.13
2023-05-25T08:02:06.821Z,5.68
2023-05-25T08:04:35.614Z,5.80
2023-05-25T08:07:03.818Z,5.97
2023-05-25T08:09:31.972Z,5.47
2023-05-25T08:12:18.522Z,5.32
2023-05-25T08:14:54.128Z,5.65
2023-05-25T08:17:22.539Z,5.45
2023-05-25T08:19:50.820Z,5.75
2023-05-25T08:22:18.900Z,5.47
2023-05-25T08:24:46.978Z,5.20
2023-05-25T08:27:15.042Z,6.50
2023-05-25T08:29:43.136Z,6.03
2023-05-25T08:32:12.577Z,5.43
2023-05-25T08:34:40.836Z,6.03
2023-05-25T08:37:09.005Z,5.63
2023-05-25T08:39:37.367Z,5.88
2023-05-25T08:42:08.333Z,5.88
2023-05-25T08:44:37.958Z,5.60
2023-05-25T08:47:08.145Z,5.82
2023-05-25T08:49:39.949Z,6.63
2023-05-25T08:52:12.110Z,5.97
2023-05-25T08:54:44.250Z,6.35
2023-05-25T08:57:18.479Z,6.15
2023-05-25T08:59:53.017Z,5.93
2023-05-25T09:02:28.120Z,5.85
2023-05-25T09:04:59.791Z,6.10
2023-05-25T09:07:31.126Z,6.05
2023-05-25T09:10:02.573Z,5.63
2023-05-25T09:12:31.937Z,5.95
2023-05-25T09:15:00.970Z,6.47
2023-05-25T09:17:29.441Z,5.45
2023-05-25T09:20:00.225Z,5.10
2023-05-25T09:22:28.538Z,6.03
2023-05-25T09:24:56.758Z,5.13
2023-05-25T09:27:25.404Z,6.00
2023-05-25T09:29:59.910Z,5.82
2023-05-25T09:32:29.269Z,5.88
2023-05-25T09:35:08.291Z,6.32
2023-05-25T09:37:39.325Z,5.00
2023-05-25T09:40:09.140Z,6.40
2023-05-25T09:42:39.690Z,5.85
2023-05-25T09:45:08.521Z,6.22
2023-05-25T09:47:38.503Z,6.28
2023-05-25T09:50:09.235Z,5.45
2023-05-25T09:52:37.779Z,5.93
2023-05-25T09:55:10.331Z,5.43
2023-05-25T09:57:38.341Z,5.45
2023-05-25T10:00:08.841Z,5.82
2023-05-25T10:02:37.558Z,5.32
2023-05-25T10:05:07.852Z,6.38
2023-05-25T10:07:38.282Z,5.88
2023-05-25T10:10:08.762Z,6.10
2023-05-25T10:12:38.383Z,6.60
2023-05-25T10:15:10.154Z,6.15
2023-05-25T10:17:45.821Z,6.20
2023-05-25T10:20:18.549Z,6.20
2023-05-25T10:22:55.432Z,6.10
2023-05-25T10:25:27.996Z,6.05
2023-05-25T10:28:00.255Z,6.35
2023-05-25T10:30:28.760Z,5.80
2023-05-25T10:32:58.837Z,6.20
2023-05-25T10:35:28.620Z,6.75
2023-05-25T10:38:00.833Z,6.05
2023-05-25T10:40:28.957Z,5.68
2023-05-25T10:42:57.195Z,5.18
2023-05-25T10:45:25.560Z,5.85
2023-05-25T10:47:53.864Z,5.57
2023-05-25T10:50:26.472Z,5.82
2023-05-25T10:53:04.623Z,5.70
2023-05-25T10:55:45.175Z,5.65
2023-05-25T10:58:15.756Z,6.82
2023-05-25T11:00:45.329Z,7.18
2023-05-25T11:03:13.507Z,6.45
2023-05-25T11:05:41.690Z,6.68
2023-05-25T11:08:17.681Z,7.30
2023-05-25T11:10:59.822Z,6.60
2023-05-25T11:13:41.242Z,6.78
2023-05-25T11:16:20.064Z,6.85
2023-05-25T11:18:58.802Z,6.68
2023-05-25T11:21:44.045Z,6.47
2023-05-25T11:24:21.344Z,6.22
2023-05-25T11:27:09.048Z,7.28
2023-05-25T11:29:37.336Z,6.93
2023-05-25T11:32:06.203Z,6.65
2023-05-25T11:34:34.793Z,6.45
2023-05-25T11:37:04.084Z,6.45
2023-05-25T11:39:33.570Z,6.50
2023-05-25T11:42:07.193Z,6.50
2023-05-25T11:44:37.907Z,5.97
2023-05-25T11:47:10.143Z,6.63
2023-05-25T11:49:41.867Z,6.80
2023-05-25T11:52:10.379Z,6.53
2023-05-25T11:54:41.534Z,5.93
2023-05-25T11:57:16.084Z,5.80
2023-05-25T11:59:50.232Z,6.13
2023-05-25T12:02:18.943Z,6.75
2023-05-25T12:04:56.424Z,5.63
2023-05-25T12:07:28.463Z,5.88
2023-05-25T12:10:11.301Z,5.63
2023-05-25T12:12:48.537Z,5.43
2023-05-25T12:15:22.451Z,6.65
2023-05-25T12:17:52.096Z,6.88
2023-05-25T12:20:23.058Z,6.15
2023-05-25T12:22:51.742Z,6.57
2023-05-25T12:25:35.749Z,6.10
2023-05-25T12:28:15.984Z,6.20
2023-05-25T12:30:45.120Z,6.47
2023-05-25T12:33:15.144Z,6.10
2023-05-25T12:35:49.270Z,5.93
2023-05-25T12:38:19.384Z,5.72
2023-05-25T12:41:17.247Z,6.03
2023-05-25T12:43:57.026Z,6.82
2023-05-25T12:46:33.281Z,6.60
2023-05-25T12:49:03.762Z,6.70
2023-05-25T12:51:42.937Z,6.05
2023-05-25T12:54:19.536Z,5.75
2023-05-25T12:56:58.472Z,5.95
2023-05-25T12:59:28.130Z,6.35
2023-05-25T13:02:00.562Z,5.75
2023-05-25T13:04:30.854Z,6.25
2023-05-25T13:07:02.448Z,6.50
2023-05-25T13:09:33.489Z,6.05
2023-05-25T13:12:04.966Z,6.40
2023-05-25T13:14:34.749Z,6.82
2023-05-25T13:17:04.881Z,6.47
2023-05-25T13:19:34.222Z,6.78
2023-05-25T13:22:08.385Z,6.30
2023-05-25T13:24:36.820Z,6.40
2023-05-25T13:27:10.809Z,6.90
2023-05-25T13:29:54.565Z,6.68
2023-05-25T13:32:22.984Z,6.88
2023-05-25T13:34:59.639Z,6.97
2023-05-25T13:37:33.995Z,7.03
2023-05-25T13:40:02.301Z,6.38
2023-05-25T13:42:37.307Z,6.90
2023-05-25T13:45:10.344Z,5.80
2023-05-25T13:47:44.613Z,6.93
2023-05-25T13:50:19.862Z,6.75
2023-05-25T13:52:49.370Z,6.97
2023-05-25T13:55:24.015Z,7.60
2023-05-25T13:57:54.233Z,6.35
2023-05-25T14:00:26.142Z,7.20
2023-05-25T14:02:54.758Z,7.18
2023-05-25T14:05:25.402Z,6.68
2023-05-25T14:08:13.138Z,6.43
2023-05-25T14:10:48.383Z,6.38
2023-05-25T14:13:16.598Z,6.43
2023-05-25T14:15:54.539Z,6.10
2023-05-25T14:18:36.547Z,6.07
2023-05-25T14:21:10.409Z,6.05
2023-05-25T14:23:41.547Z,6.35
2023-05-25T14:26:15.697Z,5.60
2023-05-25T14:28:43.874Z,6.32
2023-05-25T14:31:16.216Z,6.43
2023-05-25T14:33:44.398Z,6.18
2023-05-25T14:36:18.224Z,6.55
2023-05-25T14:38:46.567Z,6.80
2023-05-25T14:41:20.240Z,6.00
2023-05-25T14:43:48.412Z,6.38
2023-05-25T14:46:25.484Z,6.05
2023-05-25T14:48:53.611Z,5.88
2023-05-25T14:51:23.609Z,5.97
2023-05-25T14:53:53.268Z,5.72
2023-05-25T14:56:28.163Z,6.03
2023-05-25T14:58:56.336Z,5.78
2023-05-25T15:01:29.333Z,6.40
2023-05-25T15:03:57.776Z,6.70
2023-05-25T15:06:32.443Z,5.85
2023-05-25T15:09:00.690Z,6.97
2023-05-25T15:11:32.454Z,6.18
2023-05-25T15:14:03.014Z,6.65
2023-05-25T15:16:37.675Z,7.13
2023-05-25T15:19:05.981Z,6.80
2023-05-25T15:21:40.154Z,6.70
2023-05-25T15:24:08.852Z,6.72
2023-05-25T15:26:39.560Z,6.43
2023-05-25T15:29:07.815Z,6.53
2023-05-25T15:31:59.481Z,5.97
2023-05-25T15:34:28.811Z,6.65
2023-05-25T15:37:03.187Z,6.53
2023-05-25T15:39:31.533Z,6.38
2023-05-25T15:42:05.831Z,6.22
2023-05-25T15:44:34.070Z,6.57
2023-05-25T15:47:07.778Z,5.43
2023-05-25T15:49:37.065Z,6.03
2023-05-25T15:52:06.594Z,6.15
2023-05-25T15:54:34.646Z,6.78
2023-05-25T15:57:09.893Z,5.75
2023-05-25T15:59:38.079Z,6.15
2023-05-25T16:02:10.342Z,6.28
2023-05-25T16:04:38.862Z,6.20
2023-05-25T16:07:06.858Z,6.10
2023-05-25T16:09:34.910Z,6.85
2023-05-25T16:12:03.012Z,6.22
2023-05-25T16:14:31.103Z,7.13
2023-05-25T16:16:59.306Z,6.13
2023-05-25T16:19:28.841Z,5.97
2023-05-25T16:21:59.276Z,6.50
2023-05-25T16:24:27.330Z,6.53
2023-05-25T16:27:01.757Z,5.93
2023-05-25T16:29:30.053Z,6.55
2023-05-25T16:31:58.708Z,5.85
2023-05-25T16:34:28.133Z,5.60
2023-05-25T16:36:56.259Z,6.32
2023-05-25T16:39:26.416Z,6.28
2023-05-25T16:41:54.823Z,5.15
2023-05-25T16:44:28.795Z,5.68
2023-05-25T16:46:56.867Z,5.55
2023-05-25T16:49:29.421Z,5.35
2023-05-25T16:52:02.460Z,5.13
2023-05-25T16:54:31.017Z,6.35
2023-05-25T16:57:33.361Z,6.05
2023-05-25T17:00:36.420Z,5.28
2023-05-25T17:03:08.338Z,5.28
2023-05-25T17:06:18.378Z,5.90
2023-05-25T17:09:01.830Z,4.22
2023-05-25T17:13:06.949Z,6.18
2023-05-25T17:15:01.130Z,6.25
2023-05-25T17:17:42.714Z,5.88
2023-05-25T17:20:52.097Z,6.18
2023-05-25T17:23:28.030Z,6.00
2023-05-25T17:26:40.575Z,5.70
2023-05-25T17:29:37.750Z,5.95
2023-05-25T17:32:30.805Z,6.50
2023-05-25T17:35:09.004Z,5.88
2023-05-25T17:37:56.803Z,5.20
2023-05-25T17:40:50.264Z,5.72
2023-05-25T17:43:33.572Z,5.05
2023-05-25T17:46:13.848Z,5.95
2023-05-25T17:48:52.450Z,5.47
2023-05-25T17:52:04.993Z,5.97
2023-05-25T17:54:48.864Z,5.63
2023-05-25T17:58:36.552Z,6.05
2023-05-25T18:01:03.282Z,5.45
2023-05-25T18:04:17.444Z,5.10
2023-05-25T18:07:22.918Z,6.13
2023-05-25T18:10:10.674Z,5.70
2023-05-25T18:14:13.954Z,4.63
2023-05-25T18:16:51.622Z,5.72
2023-05-25T18:19:34.333Z,5.90
2023-05-25T18:23:13.615Z,5.55
2023-05-25T18:33:40.925Z,7.55
2023-05-25T18:36:10.783Z,6.40
2023-05-25T18:38:38.814Z,7.93
2023-05-25T18:41:06.881Z,13.75
2023-05-25T18:43:35.403Z,12.88
2023-05-25T18:46:03.392Z,15.00
2023-05-25T18:48:32.001Z,7.43
2023-05-25T18:51:02.794Z,6.55
2023-05-25T18:53:31.436Z,6.50
2023-05-25T18:55:59.561Z,6.07
2023-05-25T18:58:27.687Z,5.78
2023-05-25T19:00:55.641Z,5.80
2023-05-25T19:03:23.733Z,5.90
2023-05-25T19:05:52.350Z,6.38
2023-05-25T19:08:23.794Z,6.40
2023-05-25T19:10:51.927Z,6.10
2023-05-25T19:13:27.035Z,7.55
2023-05-25T19:15:55.138Z,6.18
2023-05-25T19:18:23.402Z,5.88
2023-05-25T19:20:51.708Z,6.15
2023-05-25T19:23:21.143Z,5.80
2023-05-25T19:25:49.336Z,6.55
2023-05-25T19:28:17.496Z,5.88
2023-05-25T19:30:45.780Z,6.60
2023-05-25T19:33:15.859Z,6.18
2023-05-25T19:35:44.065Z,6.53
2023-05-25T19:38:12.610Z,6.60
2023-05-25T19:40:44.628Z,6.78
2023-05-25T19:43:12.742Z,5.57
2023-05-25T19:45:41.044Z,7.20
2023-05-25T19:48:09.312Z,5.93
2023-05-25T19:50:37.485Z,6.53
2023-05-25T19:53:05.618Z,7.05
2023-05-25T19:55:33.654Z,5.72
2023-05-25T19:58:03.023Z,6.13
2023-05-25T20:00:33.470Z,5.78
2023-05-25T20:03:02.847Z,5.90
2023-05-25T20:05:31.113Z,6.72
2023-05-25T20:07:59.286Z,5.57
2023-05-25T20:10:27.444Z,5.95
2023-05-25T20:12:55.604Z,6.22
2023-05-25T20:15:25.112Z,6.55
2023-05-25T20:17:53.631Z,5.90
2023-05-25T20:20:21.756Z,6.10
2023-05-25T20:22:49.947Z,6.45
2023-05-25T20:25:18.140Z,5.82
2023-05-25T20:27:46.328Z,6.28
2023-05-25T20:30:15.891Z,7.03
2023-05-25T20:32:45.683Z,5.97
2023-05-25T20:35:14.092Z,7.00
2023-05-25T20:37:43.120Z,6.68
2023-05-25T20:40:11.434Z,6.18
2023-05-25T20:42:39.868Z,6.47
2023-05-25T20:45:09.065Z,6.53
2023-05-25T20:47:39.852Z,6.18
2023-05-25T20:50:09.776Z,5.78
2023-05-25T20:52:37.819Z,6.05
2023-05-25T20:55:06.970Z,6.63
2023-05-25T20:57:35.112Z,6.55
2023-05-25T21:00:03.546Z,6.22
2023-05-25T21:02:31.639Z,6.33
2023-05-25T21:04:59.656Z,5.93
2023-05-25T21:07:29.076Z,6.00
2023-05-25T21:09:59.388Z,6.90
2023-05-25T21:12:27.472Z,6.88
2023-05-25T21:14:55.817Z,6.03
2023-05-25T21:17:23.818Z,6.28
2023-05-25T21:19:51.940Z,6.50
2023-05-25T21:22:20.233Z,5.93
2023-05-25T21:24:50.090Z,6.28
2023-05-25T21:27:18.676Z,6.88
2023-05-25T21:29:46.708Z,6.60
2023-05-25T21:32:14.938Z,6.40
2023-05-25T21:34:43.529Z,6.15
2023-05-25T21:37:11.644Z,6.25
2023-05-25T21:39:39.810Z,5.95
2023-05-25T21:42:10.116Z,5.78
2023-05-25T21:44:38.156Z,6.57
2023-05-25T21:47:06.408Z,6.50
2023-05-25T21:49:34.726Z,6.68
2023-05-25T21:52:02.977Z,5.80
2023-05-25T21:54:31.503Z,6.60
2023-05-25T21:56:59.493Z,6.53
2023-05-25T21:59:28.893Z,6.55
2023-05-25T22:01:57.038Z,6.68
2023-05-25T22:04:25.091Z,6.30
2023-05-25T22:06:53.908Z,7.40
2023-05-25T22:09:22.022Z,6.45
2023-05-25T22:11:50.193Z,6.40
2023-05-25T22:14:18.350Z,6.57
2023-05-25T22:16:47.880Z,5.57
2023-05-25T22:19:16.102Z,6.95
2023-05-25T22:21:44.206Z,6.00
2023-05-25T22:24:12.512Z,6.45
2023-05-25T22:26:40.556Z,6.25
2023-05-25T22:29:08.637Z,5.38
2023-05-25T22:31:37.230Z,7.13
2023-05-25T22:34:06.667Z,6.95
2023-05-25T22:36:34.718Z,6.43
2023-05-25T22:39:02.846Z,6.40
2023-05-25T22:41:30.817Z,6.10
2023-05-25T22:43:58.825Z,7.55
2023-05-25T22:46:26.998Z,7.05
2023-05-25T22:48:55.206Z,6.03
2023-05-25T22:51:24.890Z,5.88
2023-05-25T22:53:52.969Z,6.35
2023-05-25T22:56:21.020Z,5.97
2023-05-25T22:58:49.096Z,5.35
2023-05-25T23:01:17.399Z,6.63
2023-05-25T23:03:45.584Z,6.10
2023-05-25T23:06:13.773Z,6.32
2023-05-25T23:08:43.970Z,6.65
2023-05-25T23:11:11.971Z,6.13
2023-05-25T23:13:41.525Z,5.50
2023-05-25T23:16:15.749Z,6.18
2023-05-25T23:18:44.102Z,6.65
2023-05-25T23:21:12.419Z,6.88
2023-05-25T23:23:42.030Z,6.15
2023-05-25T23:26:10.034Z,5.75
2023-05-25T23:28:45.168Z,5.80
2023-05-25T23:31:13.445Z,6.28
2023-05-25T23:33:41.494Z,6.10
2023-05-25T23:36:09.871Z,6.20
2023-05-25T23:38:38.152Z,6.17
2023-05-25T23:41:08.212Z,6.40
2023-05-25T23:43:36.363Z,6.45
2023-05-25T23:46:04.913Z,6.53
2023-05-25T23:48:33.157Z,6.30
2023-05-25T23:51:01.311Z,6.32
2023-05-25T23:53:29.481Z,5.60
2023-05-25T23:56:00.243Z,5.68
2023-05-25T23:58:29.665Z,6.38
